CCGS Tanu — CGBY — position and weather

sailwx.info

Track history (hours):
 
Tides and Currents Weather Stations Pressure Air Temp Water Temp Dewpoint Dewpoint Depression Visibility Wind Speed Wind Dir Waves Ship Positions

CCGS Tanu (Canada)

Ship's website: http://www.ccg-gcc.gc.ca/vessels-navires/details_e.asp?id=M-5

Last reported at 2016-Dec-03 19:00 UTC. Time now 2016-Dec-03 19:43 UTC.
Position N 50°42' W 127°30'.

Length 54.5 m; beam 9.7 m; draft 3.7 m.

Type: SAR. MMSI: 316091000.

Wind from 190 at 6 knots

Barometer 1021.4 mb
Air temperature 4.6 ° C
Dewpoint 1.9 ° C
Water temperature 12.3 ° C

Date/timePositionNaut miles runAvg speedWind from/ knotsBaromVisibWave heightAir tempDewpointWater temp
2016-Dec-03 19:00N 50°42' W 127°30'0 0.0 190 / 61021.4 4.6 1.912.3
2016-Dec-03 18:00N 50°42' W 127°30'2 3.7 150 / 51021.6 4.2 2.512.3
2016-Dec-03 17:32N 50°44' W 127°29'5 8.3
2016-Dec-03 17:00N 50°48' W 127°30'3 7.6 210 / 121020.1 5.1 2.012.2
2016-Dec-03 16:33N 50°49' W 127°35'5 9.6
2016-Dec-03 16:00N 50°54' W 127°36'613.1 220 / 101019.6 6.0 1.312.1
2016-Dec-03 15:32N 50°57' W 127°44'712.7
2016-Dec-03 15:00N 51°00' W 127°54'7 7.1 270 / 241019.4 7.8 2.811.8
2016-Dec-03 14:00N 51°06' W 128°00'510.2 270 / 281018.4 7.0 3.211.6
2016-Dec-03 13:33N 51°10' W 127°57'814.6
2016-Dec-03 13:00N 51°18' W 127°54'6 6.0 260 / 231017.8 8.3 0.111.5
2016-Dec-03 12:00N 51°24' W 127°54'1212.0 280 / 131017.8 7.4 2.211.7
2016-Dec-03 11:00N 51°36' W 127°54'1212.0 260 / 141016.8 6.9 2.711.7
2016-Dec-03 10:00N 51°48' W 127°54'6 6.0 240 / 131016.1 7.0 3.811.8
2016-Dec-03 09:00N 51°54' W 127°54'1414.1 220 / 131015.4 7.4 3.211.9
2016-Dec-03 08:00N 52°06' W 128°06'6 6.0 240 / 91015.4 5.4 2.712.0
2016-Dec-03 07:00N 52°12' W 128°06'1615.9 220 / 101014.8 6.3 2.412.0
2016-Dec-03 06:00N 52°18' W 128°30'1312.5 240 / 191014.5 8.2 2.512.0
2016-Dec-03 05:00N 52°12' W 128°48'1312.5 240 / 151013.4 7.4 2.711.9
2016-Dec-03 04:00N 52°24' W 128°54'1312.5 250 / 201012.5 8.4 2.412.0
2016-Dec-03 03:00N 52°36' W 128°48'6 6.0 250 / 141012.5 7.8 2.812.1
2016-Dec-03 02:00N 52°30' W 128°48'0 0.0 230 / 111011.7 7.8 3.1
2016-Dec-03 01:00N 52°30' W 128°48'0 0.0 240 / 141010.6 8.1 3.1
2016-Dec-03 00:00N 52°30' W 128°48'0 0.0 230 / 111010.1 8.5 4.0
2016-Dec-02 23:00N 52°30' W 128°48'0 0.0 230 / 71010.0 7.0 3.3
2016-Dec-02 22:00N 52°30' W 128°48'0 0.0 220 / 121009.4 8.2 4.2
2016-Dec-02 21:00N 52°30' W 128°48'0 0.0 210 / 151009.3 7.5 4.1
2016-Dec-02 20:00N 52°30' W 128°48'0 0.0 210 / 141009.2 8.0 4.0
2016-Dec-02 19:00N 52°30' W 128°48'0 0.0 220 / 141009.0 8.1 4.4
2016-Dec-02 18:00N 52°30' W 128°48'0 0.0 220 / 151008.4 7.9 4.3
2016-Dec-02 17:00N 52°30' W 128°48'0 0.0 210 / 131007.4 8.5 5.1
2016-Dec-02 16:00N 52°30' W 128°48'0 0.0 190 / 111007.0 8.1 4.8
2016-Dec-02 15:00N 52°30' W 128°48'0 0.0 220 / 131006.6 8.4 4.8
2016-Dec-02 14:00N 52°30' W 128°48'0 0.0 190 / 91005.7 8.2 6.6
2016-Dec-02 13:00N 52°30' W 128°48'0 0.0 160 / 251005.1 7.2 6.2
2016-Dec-02 12:00N 52°30' W 128°48'0 0.0 150 / 301004.4 6.8 5.5
2016-Dec-02 11:00N 52°30' W 128°48'0 0.0 140 / 241006.0 5.7 4.7
2016-Dec-02 10:00N 52°30' W 128°48'0 0.0 130 / 311007.1 5.6 4.3
2016-Dec-02 09:00N 52°30' W 128°48'0 0.0 140 / 241010.3 5.8 4.2
2016-Dec-02 08:00N 52°30' W 128°48'0 0.0 140 / 201011.5 6.0 4.5
2016-Dec-02 07:00N 52°30' W 128°48'0 0.0 140 / 201012.9 6.0 4.3
2016-Dec-02 06:00N 52°30' W 128°48'0 0.0 130 / 221013.9 6.2 3.8
2016-Dec-02 05:00N 52°30' W 128°48'0 0.0 130 / 231015.0 6.1 3.6
2016-Dec-02 04:00N 52°30' W 128°48'0 0.0 130 / 171016.6 5.9 4.0
2016-Dec-02 03:00N 52°30' W 128°48'0 0.0 130 / 171016.8 5.7 4.1
2016-Dec-02 02:00N 52°30' W 128°48'0 0.0 130 / 181017.1 5.7 4.2
2016-Dec-02 01:00N 52°30' W 128°48'0 0.0 130 / 161017.7 5.9 4.7
2016-Dec-02 00:00N 52°30' W 128°48'0 0.0 140 / 131017.7 5.9 4.5
2016-Dec-01 23:00N 52°30' W 128°48'0 0.0 120 / 161016.7 5.8 4.3
2016-Dec-01 22:00N 52°30' W 128°48'0 0.0 130 / 141016.4 5.6 4.3
2016-Dec-01 21:00N 52°30' W 128°48'0 0.0 140 / 141016.4 5.3 4.1
2016-Dec-01 20:00N 52°30' W 128°48'0 0.0 150 / 191016.4 4.8 3.6
2016-Dec-01 19:00N 52°30' W 128°48'0 0.0 150 / 181015.7 4.5 3.0
2016-Dec-01 18:00N 52°30' W 128°48'0 0.0 130 / 211015.0 4.3 2.8
2016-Dec-01 12:00N 52°30' W 128°48'0 0.0 130 / 201016.7 4.5 1.5
2016-Dec-01 06:00N 52°30' W 128°48'0 0.0 110 / 61018.5 2.7 1.3
2016-Dec-01 00:00N 52°30' W 128°48'0 0.0 270 / 41016.6 4.1-0.2
2016-Nov-30 18:00N 52°30' W 128°48'0 0.0 300 / 131012.4 4.3 1.2
2016-Nov-30 17:00N 52°30' W 128°48'0 0.0 300 / 161010.9 4.5 1.1
2016-Nov-30 16:00N 52°30' W 128°48'0 0.0 280 / 111009.7 3.5 1.5
2016-Nov-30 15:00N 52°30' W 128°48'0 0.0 310 / 171007.9 3.7 1.5
2016-Nov-30 14:00N 52°30' W 128°48'0 0.0 320 / 321004.7 2.9 0.5
2016-Nov-30 13:00N 52°30' W 128°48'0 0.0 310 / 241003.6 2.0 0.6
2016-Nov-30 12:00N 52°30' W 128°48'0 0.0 120 / 121001.7 1.9-0.8
2016-Nov-30 11:00N 52°30' W 128°48'0 0.0 140 / 211000.6 2.6-1.2
2016-Nov-30 10:00N 52°30' W 128°48'0 0.0 150 / 211001.1 2.4-1.1
2016-Nov-30 09:00N 52°30' W 128°48'0 0.0 150 / 101001.1 -0.0-2.8
2016-Nov-30 08:00N 52°30' W 128°48'0 0.0 150 / 141000.2 -3.1-7.6
2016-Nov-30 07:00N 52°30' W 128°48'0 0.0 130 / 11999.9 -0.6-4.8
2016-Nov-30 06:00N 52°30' W 128°48'0 0.0 120 / 131000.4 -1.7-4.9
2016-Nov-30 05:00N 52°30' W 128°48'0 0.0 130 / 71000.9 -5.3-8.0
2016-Nov-30 04:00N 52°30' W 128°48'0 0.0 170 / 31000.9 -7.8-10.1
2016-Nov-30 03:00N 52°30' W 128°48'0 0.0 140 / 61000.8 -12.0-16.0
2016-Nov-30 02:00N 52°30' W 128°48'0 0.0 120 / 51000.7 -13.5-17.4
2016-Nov-30 01:00N 52°30' W 128°48'0 0.0 120 / 101001.8 -15.6-20.4
2016-Nov-30 00:00N 52°30' W 128°48'0 0.0 140 / 141002.6 -23.3-28.6
2016-Nov-29 23:00N 52°30' W 128°48'0 0.0 130 / 171003.7
2016-Nov-29 22:00N 52°30' W 128°48'0 0.0 130 / 191004.9
2016-Nov-29 21:00N 52°30' W 128°48'0 0.0 130 / 191006.8
2016-Nov-29 20:00N 52°30' W 128°48'0 0.0 130 / 221008.2
2016-Nov-29 19:00N 52°30' W 128°48'0 0.0 130 / 221009.1
2016-Nov-29 18:00N 52°30' W 128°48'0 0.0 130 / 221010.0
2016-Nov-29 17:00N 52°30' W 128°48'0 0.0 130 / 221010.7
2016-Nov-29 16:00N 52°30' W 128°48'0 0.0 130 / 211011.6
2016-Nov-29 15:00N 52°30' W 128°48'0 0.0 130 / 211012.1
2016-Nov-29 14:00N 52°30' W 128°48'0 0.0 130 / 201012.9
2016-Nov-29 13:00N 52°30' W 128°48'0 0.0 130 / 211013.4
2016-Nov-29 12:00N 52°30' W 128°48'0 0.0 130 / 201013.9
2016-Nov-29 11:00N 52°30' W 128°48'0 0.0 140 / 171014.6
2016-Nov-29 10:00N 52°30' W 128°48'0 0.0 130 / 131015.3
2016-Nov-29 09:00N 52°30' W 128°48'0 0.0 130 / 141015.3
2016-Nov-29 08:00N 52°30' W 128°48'0 0.0 130 / 161015.5
2016-Nov-29 07:00N 52°30' W 128°48'0 0.0 130 / 161015.5
2016-Nov-29 06:00N 52°30' W 128°48'0 0.0 140 / 121015.9
2016-Nov-29 05:00N 52°30' W 128°48'0 0.0 130 / 91016.1
2016-Nov-29 04:00N 52°30' W 128°48'0 0.0 140 / 61016.3
2016-Nov-29 03:00N 52°30' W 128°48'0 0.0 130 / 51016.5
2016-Nov-29 02:00N 52°30' W 128°48'0 0.0 190 / 21015.9
2016-Nov-29 01:00N 52°30' W 128°48'0 0.0 250 / 21015.4
2016-Nov-29 00:00N 52°30' W 128°48'0 0.0 310 / 91014.8
2016-Nov-28 23:00N 52°30' W 128°48'0 0.0 280 / 51014.3
2016-Nov-28 22:00N 52°30' W 128°48'0 0.0 280 / 61013.5
2016-Nov-28 21:00N 52°30' W 128°48'0 0.0 290 / 81012.7
2016-Nov-28 20:00N 52°30' W 128°48'0 0.0 300 / 91012.0
2016-Nov-28 19:00N 52°30' W 128°48'0 0.0 270 / 81011.0
2016-Nov-28 18:00N 52°30' W 128°48'0 0.0 290 / 111009.7
2016-Nov-28 17:00N 52°30' W 128°48'0 0.0 300 / 111008.9
2016-Nov-28 16:00N 52°30' W 128°48'0 0.0 340 / 51007.8
2016-Nov-28 15:00N 52°30' W 128°48'0 0.0 230 / 21006.4
2016-Nov-28 14:00N 52°30' W 128°48'0 0.0 130 / 61005.1
2016-Nov-28 13:00N 52°30' W 128°48'0 0.0 110 / 51003.8
2016-Nov-28 12:00N 52°30' W 128°48'0 0.0 110 / 71002.5
2016-Nov-28 11:00N 52°30' W 128°48'0 0.0 090 / 91001.1
2016-Nov-28 10:00N 52°30' W 128°48'0 0.0 090 / 81000.0
2016-Nov-28 09:00N 52°30' W 128°48'0 0.0 130 / 16999.0
2016-Nov-28 08:00N 52°30' W 128°48'0 0.0 130 / 16998.5
2016-Nov-28 07:00N 52°30' W 128°48'0 0.0 130 / 16997.8
2016-Nov-28 06:00N 52°30' W 128°48'0 0.0 140 / 16997.4
2016-Nov-28 05:00N 52°30' W 128°48'0 0.0 110 / 12997.1
2016-Nov-28 04:00N 52°30' W 128°48'0 0.0 120 / 9997.3
2016-Nov-28 03:00N 52°30' W 128°48'0 0.0 110 / 11997.0 11.7
2016-Nov-28 02:00N 52°30' W 128°48'0 0.0 110 / 8997.1 11.6
2016-Nov-28 01:00N 52°30' W 128°48'6 6.0 120 / 10997.1 11.5
2016-Nov-28 00:00N 52°36' W 128°48'1312.5 020 / 12995.9 11.5
2016-Nov-27 23:00N 52°24' W 128°54'7 7.0 330 / 12994.9 11.3
2016-Nov-27 22:00N 52°18' W 128°48'1111.0 320 / 16993.7 11.2
2016-Nov-27 21:00N 52°18' W 128°30'1312.5 170 / 31993.8 11.2
2016-Nov-27 20:00N 52°12' W 128°12'4 3.7 140 / 16994.0 11.2
2016-Nov-27 19:00N 52°12' W 128°06'9 9.5 150 / 18994.9 11.3
2016-Nov-27 18:00N 52°06' W 127°54'1212.0 140 / 9996.6 11.4
2016-Nov-27 17:00N 51°54' W 127°54'1212.0 150 / 21998.3 11.5
2016-Nov-27 16:00N 51°42' W 127°54'7 7.4 160 / 15999.9 11.7
2016-Nov-27 15:00N 51°42' W 128°06'0 0.0 150 / 7999.7
2016-Nov-27 14:00N 51°42' W 128°06'0 0.0 110 / 71000.9
2016-Nov-27 13:00N 51°42' W 128°06'0 0.0 110 / 51002.3
2016-Nov-27 12:00N 51°42' W 128°06'0 0.0 140 / 41002.7
2016-Nov-27 11:00N 51°42' W 128°06'0 0.0 150 / 21002.4
2016-Nov-27 10:00N 51°42' W 128°06'0 0.0 140 / 41002.6
2016-Nov-27 09:00N 51°42' W 128°06'0 0.0 120 / 31002.9
2016-Nov-27 08:00N 51°42' W 128°06'0 0.0 180 / 31003.0
2016-Nov-27 07:00N 51°42' W 128°06'0 0.0 150 / 21002.7
2016-Nov-27 06:00N 51°42' W 128°06'0 0.0 160 / 31002.0
2016-Nov-27 05:00N 51°42' W 128°06'0 0.0 100 / 21001.7
2016-Nov-27 04:00N 51°42' W 128°06'0 0.0 170 / 11001.5
2016-Nov-27 03:00N 51°42' W 128°06'0 0.0 170 / 11000.9
2016-Nov-27 02:00N 51°42' W 128°06'0 0.0 170 / 51000.6
2016-Nov-27 01:00N 51°42' W 128°06'0 0.0 130 / 11000.5
2016-Nov-27 00:00N 51°42' W 128°06'0 0.0 020 / 5999.7
2016-Nov-26 23:00N 51°42' W 128°06'0 0.0 020 / 5999.3
2016-Nov-26 22:00N 51°42' W 128°06'0 0.0 360 / 9999.0
2016-Nov-26 21:00N 51°42' W 128°06'0 0.0 020 / 6998.8
2016-Nov-26 20:00N 51°42' W 128°06'0 0.0 350 / 7998.9
2016-Nov-26 19:00N 51°42' W 128°06'0 0.0 040 / 5999.2
2016-Nov-26 18:00N 51°42' W 128°06'0 0.0 020 / 5999.1
2016-Nov-26 17:00N 51°42' W 128°06'0 0.0 020 / 4999.2
2016-Nov-26 16:00N 51°42' W 128°06'0 0.0 030 / 5999.4
2016-Nov-26 15:00N 51°42' W 128°06'0 0.0 1000.2
2016-Nov-26 14:00N 51°42' W 128°06'0 0.0 060 / 41000.9
2016-Nov-26 13:00N 51°42' W 128°06'0 0.0 100 / 41001.8
2016-Nov-26 12:00N 51°42' W 128°06'0 0.0 110 / 61002.5
2016-Nov-26 11:00N 51°42' W 128°06'0 0.0 170 / 51003.6
2016-Nov-26 10:00N 51°42' W 128°06'0 0.0 100 / 101003.9
2016-Nov-26 09:00N 51°42' W 128°06'0 0.0 120 / 61004.9
2016-Nov-26 08:00N 51°42' W 128°06'0 0.0 110 / 101005.9
2016-Nov-26 07:00N 51°42' W 128°06'0 0.0 120 / 61006.8
2016-Nov-26 06:00N 51°42' W 128°06'0 0.0 100 / 71007.5
2016-Nov-26 05:00N 51°42' W 128°06'0 0.0 110 / 31008.5
2016-Nov-26 04:00N 51°42' W 128°06'0 0.0 110 / 41009.3
2016-Nov-26 03:00N 51°42' W 128°06'0 0.0 080 / 31009.9
2016-Nov-26 02:00N 51°42' W 128°06'0 0.0 080 / 51010.3
2016-Nov-26 01:00N 51°42' W 128°06'0 0.0 080 / 91010.3
2016-Nov-26 00:00N 51°42' W 128°06'0 0.0 090 / 31010.4
2016-Nov-25 23:00N 51°42' W 128°06'0 0.0 120 / 41010.6
2016-Nov-25 22:00N 51°42' W 128°06'0 0.0 130 / 31010.6
2016-Nov-25 21:00N 51°42' W 128°06'0 0.0 080 / 61010.7
2016-Nov-25 20:00N 51°42' W 128°06'0 0.0 120 / 21011.0
2016-Nov-25 19:00N 51°42' W 128°06'0 0.0 110 / 41011.0 -19.3-24.4
2016-Nov-25 18:00N 51°42' W 128°06'0 0.0 150 / 11010.5 -18.6-20.8
2016-Nov-25 17:00N 51°42' W 128°06'0 0.0 090 / 41010.3 -17.2-20.6
2016-Nov-25 16:00N 51°42' W 128°06'0 0.0 060 / 61009.7 -17.3-19.2
2016-Nov-25 15:00N 51°42' W 128°06'0 0.0 070 / 31008.9 -21.2-25.0
2016-Nov-25 14:00N 51°42' W 128°06'0 0.0 050 / 41008.3 -20.8-23.0
2016-Nov-25 13:00N 51°42' W 128°06'0 0.0 100 / 71007.7 -16.9-19.3
2016-Nov-25 12:00N 51°42' W 128°06'0 0.0 070 / 51007.0 -14.4-15.9
2016-Nov-25 11:00N 51°42' W 128°06'0 0.0 060 / 61006.4 -14.9-16.8
2016-Nov-25 10:00N 51°42' W 128°06'0 0.0 050 / 41005.1 -14.2-15.5
2016-Nov-25 09:00N 51°42' W 128°06'0 0.0 070 / 41004.6 -14.0-15.7
2016-Nov-25 08:00N 51°42' W 128°06'0 0.0 100 / 21003.9 -14.7-16.7
2016-Nov-25 07:00N 51°42' W 128°06'0 0.0 090 / 41003.3 -13.9-16.3
2016-Nov-25 06:00N 51°42' W 128°06'0 0.0 110 / 41003.0 -14.4-17.5
2016-Nov-25 05:00N 51°42' W 128°06'0 0.0 100 / 41002.6 -12.7-15.6
2016-Nov-25 04:00N 51°42' W 128°06'0 0.0 110 / 61002.2 -13.3-17.3
2016-Nov-25 03:00N 51°42' W 128°06'0 0.0 130 / 51002.3 -12.7-17.0
2016-Nov-25 02:00N 51°42' W 128°06'0 0.0 150 / 61002.3 -12.2-16.6
2016-Nov-25 01:00N 51°42' W 128°06'0 0.0 150 / 81002.1 -11.4-15.3
2016-Nov-25 00:00N 51°42' W 128°06'0 0.0 150 / 71001.6 -10.8-15.1
2016-Nov-24 23:00N 51°42' W 128°06'0 0.0 140 / 61001.4 -9.3-13.2
2016-Nov-24 22:00N 51°42' W 128°06'0 0.0 180 / 41001.4 -7.5-9.8
2016-Nov-24 21:00N 51°42' W 128°06'0 0.0 140 / 61001.0 -1.2-6.5
2016-Nov-24 20:00N 51°42' W 128°06'0 0.0 100 / 71001.4 0.1-4.9
2016-Nov-24 19:00N 51°42' W 128°06'0 0.0 130 / 71001.6 -0.4-5.1
2016-Nov-24 18:00N 51°42' W 128°06'0 0.0 100 / 81001.7 -1.4-3.4
2016-Nov-24 17:00N 51°42' W 128°06'0 0.0 100 / 91001.4 -1.5-3.9
2016-Nov-24 16:00N 51°42' W 128°06'0 0.0 090 / 151000.8 -1.4-4.0
2016-Nov-24 15:00N 51°42' W 128°06'0 0.0 090 / 101000.8 -1.2-4.0
2016-Nov-24 14:00N 51°42' W 128°06'0 0.0 090 / 81001.2 -1.1-4.1
2016-Nov-24 13:00N 51°42' W 128°06'0 0.0 100 / 131001.0 -0.4-3.8
2016-Nov-24 12:00N 51°42' W 128°06'0 0.0 140 / 51001.5 -0.1-4.6
2016-Nov-24 11:00N 51°42' W 128°06'0 0.0 160 / 111001.4 -0.2-6.5
2016-Nov-24 10:00N 51°42' W 128°06'0 0.0 150 / 131000.5 0.3-4.9
2016-Nov-24 09:00N 51°42' W 128°06'0 0.0 130 / 41001.0 -1.5-4.712.4
2016-Nov-24 08:00N 51°42' W 128°06'0 0.0 120 / 121001.5 -2.9-4.812.5
2016-Nov-24 07:00N 51°42' W 128°06'10 9.6 190 / 161000.2 -1.4-3.412.5
2016-Nov-24 06:00N 51°36' W 127°54'1212.0 160 / 30999.9 0.5-2.212.6
2016-Nov-24 05:00N 51°24' W 127°54'1212.0 150 / 38998.2 0.4-1.612.6
2016-Nov-24 04:00N 51°12' W 127°54'716.3 130 / 39997.8 1.6-1.412.6
2016-Nov-24 03:33N 51°05' W 127°50'1120.2
2016-Nov-24 03:00N 50°54' W 127°48'511.0 120 / 42998.4 2.1-2.112.6
2016-Nov-24 02:33N 50°55' W 127°41'712.2
2016-Nov-24 02:00N 50°54' W 127°30'613.7 120 / 351001.5 1.3-2.912.6
2016-Nov-24 01:33N 50°49' W 127°25'712.9
2016-Nov-24 01:00N 50°42' W 127°30'0 0.0 120 / 181003.0 0.7-2.712.7
2016-Nov-24 00:00N 50°42' W 127°30'0 0.0 130 / 91004.6 -0.2-2.9
2016-Nov-23 23:00N 50°42' W 127°30'0 0.0 120 / 81005.6 -0.3-3.3
2016-Nov-23 22:00N 50°42' W 127°30'1 1.8 130 / 71006.6 -0.1-2.6
2016-Nov-23 21:11N 50°43' W 127°29'1 7.2
2016-Nov-23 21:00N 50°42' W 127°30'0 0.0 130 / 71007.2 -0.1-2.4
2016-Nov-23 20:00N 50°42' W 127°30'0 0.0 150 / 41007.5 -0.3-2.513.4
2016-Nov-23 19:00N 50°42' W 127°30'   190 / 31007.8 -0.9-2.113.4
Track history (hours):
 
Tides and Currents Weather Stations Pressure Air Temp Water Temp Dewpoint Dewpoint Depression Visibility Wind Speed Wind Dir Waves Ship Positions

CCGS Tanu (Canada)

Ship's website: http://www.ccg-gcc.gc.ca/vessels-navires/details_e.asp?id=M-5

Last reported at 2016-Dec-03 19:00 UTC. Time now 2016-Dec-03 19:43 UTC.
Position N 50°42' W 127°30'.

Length 54.5 m; beam 9.7 m; draft 3.7 m.

Type: SAR. MMSI: 316091000.

Wind from 190 at 6 knots

Barometer 1021.4 mb
Air temperature 4.6 ° C
Dewpoint 1.9 ° C
Water temperature 12.3 ° C

Date/timePositionNaut miles runAvg speedWind from/ knotsBaromVisibWave heightAir tempDewpointWater temp
2016-Dec-03 19:00N 50°42' W 127°30'0 0.0 190 / 61021.4 4.6 1.912.3
2016-Dec-03 18:00N 50°42' W 127°30'2 3.7 150 / 51021.6 4.2 2.512.3
2016-Dec-03 17:32N 50°44' W 127°29'5 8.3
2016-Dec-03 17:00N 50°48' W 127°30'3 7.6 210 / 121020.1 5.1 2.012.2
2016-Dec-03 16:33N 50°49' W 127°35'5 9.6
2016-Dec-03 16:00N 50°54' W 127°36'613.1 220 / 101019.6 6.0 1.312.1
2016-Dec-03 15:32N 50°57' W 127°44'712.7
2016-Dec-03 15:00N 51°00' W 127°54'7 7.1 270 / 241019.4 7.8 2.811.8
2016-Dec-03 14:00N 51°06' W 128°00'510.2 270 / 281018.4 7.0 3.211.6
2016-Dec-03 13:33N 51°10' W 127°57'814.6
2016-Dec-03 13:00N 51°18' W 127°54'6 6.0 260 / 231017.8 8.3 0.111.5
2016-Dec-03 12:00N 51°24' W 127°54'1212.0 280 / 131017.8 7.4 2.211.7
2016-Dec-03 11:00N 51°36' W 127°54'1212.0 260 / 141016.8 6.9 2.711.7
2016-Dec-03 10:00N 51°48' W 127°54'6 6.0 240 / 131016.1 7.0 3.811.8
2016-Dec-03 09:00N 51°54' W 127°54'1414.1 220 / 131015.4 7.4 3.211.9
2016-Dec-03 08:00N 52°06' W 128°06'6 6.0 240 / 91015.4 5.4 2.712.0
2016-Dec-03 07:00N 52°12' W 128°06'1615.9 220 / 101014.8 6.3 2.412.0
2016-Dec-03 06:00N 52°18' W 128°30'1312.5 240 / 191014.5 8.2 2.512.0
2016-Dec-03 05:00N 52°12' W 128°48'1312.5 240 / 151013.4 7.4 2.711.9
2016-Dec-03 04:00N 52°24' W 128°54'1312.5 250 / 201012.5 8.4 2.412.0
2016-Dec-03 03:00N 52°36' W 128°48'6 6.0 250 / 141012.5 7.8 2.812.1
2016-Dec-03 02:00N 52°30' W 128°48'0 0.0 230 / 111011.7 7.8 3.1
2016-Dec-03 01:00N 52°30' W 128°48'0 0.0 240 / 141010.6 8.1 3.1
2016-Dec-03 00:00N 52°30' W 128°48'0 0.0 230 / 111010.1 8.5 4.0
2016-Dec-02 23:00N 52°30' W 128°48'0 0.0 230 / 71010.0 7.0 3.3
2016-Dec-02 22:00N 52°30' W 128°48'0 0.0 220 / 121009.4 8.2 4.2
2016-Dec-02 21:00N 52°30' W 128°48'0 0.0 210 / 151009.3 7.5 4.1
2016-Dec-02 20:00N 52°30' W 128°48'0 0.0 210 / 141009.2 8.0 4.0
2016-Dec-02 19:00N 52°30' W 128°48'0 0.0 220 / 141009.0 8.1 4.4
2016-Dec-02 18:00N 52°30' W 128°48'0 0.0 220 / 151008.4 7.9 4.3
2016-Dec-02 17:00N 52°30' W 128°48'0 0.0 210 / 131007.4 8.5 5.1
2016-Dec-02 16:00N 52°30' W 128°48'0 0.0 190 / 111007.0 8.1 4.8
2016-Dec-02 15:00N 52°30' W 128°48'0 0.0 220 / 131006.6 8.4 4.8
2016-Dec-02 14:00N 52°30' W 128°48'0 0.0 190 / 91005.7 8.2 6.6
2016-Dec-02 13:00N 52°30' W 128°48'0 0.0 160 / 251005.1 7.2 6.2
2016-Dec-02 12:00N 52°30' W 128°48'0 0.0 150 / 301004.4 6.8 5.5
2016-Dec-02 11:00N 52°30' W 128°48'0 0.0 140 / 241006.0 5.7 4.7
2016-Dec-02 10:00N 52°30' W 128°48'0 0.0 130 / 311007.1 5.6 4.3
2016-Dec-02 09:00N 52°30' W 128°48'0 0.0 140 / 241010.3 5.8 4.2
2016-Dec-02 08:00N 52°30' W 128°48'0 0.0 140 / 201011.5 6.0 4.5
2016-Dec-02 07:00N 52°30' W 128°48'0 0.0 140 / 201012.9 6.0 4.3
2016-Dec-02 06:00N 52°30' W 128°48'0 0.0 130 / 221013.9 6.2 3.8
2016-Dec-02 05:00N 52°30' W 128°48'0 0.0 130 / 231015.0 6.1 3.6
2016-Dec-02 04:00N 52°30' W 128°48'0 0.0 130 / 171016.6 5.9 4.0
2016-Dec-02 03:00N 52°30' W 128°48'0 0.0 130 / 171016.8 5.7 4.1
2016-Dec-02 02:00N 52°30' W 128°48'0 0.0 130 / 181017.1 5.7 4.2
2016-Dec-02 01:00N 52°30' W 128°48'0 0.0 130 / 161017.7 5.9 4.7
2016-Dec-02 00:00N 52°30' W 128°48'0 0.0 140 / 131017.7 5.9 4.5
2016-Dec-01 23:00N 52°30' W 128°48'0 0.0 120 / 161016.7 5.8 4.3
2016-Dec-01 22:00N 52°30' W 128°48'0 0.0 130 / 141016.4 5.6 4.3
2016-Dec-01 21:00N 52°30' W 128°48'0 0.0 140 / 141016.4 5.3 4.1
2016-Dec-01 20:00N 52°30' W 128°48'0 0.0 150 / 191016.4 4.8 3.6
2016-Dec-01 19:00N 52°30' W 128°48'0 0.0 150 / 181015.7 4.5 3.0
2016-Dec-01 18:00N 52°30' W 128°48'0 0.0 130 / 211015.0 4.3 2.8
2016-Dec-01 12:00N 52°30' W 128°48'0 0.0 130 / 201016.7 4.5 1.5
2016-Dec-01 06:00N 52°30' W 128°48'0 0.0 110 / 61018.5 2.7 1.3
2016-Dec-01 00:00N 52°30' W 128°48'0 0.0 270 / 41016.6 4.1-0.2
2016-Nov-30 18:00N 52°30' W 128°48'0 0.0 300 / 131012.4 4.3 1.2
2016-Nov-30 17:00N 52°30' W 128°48'0 0.0 300 / 161010.9 4.5 1.1
2016-Nov-30 16:00N 52°30' W 128°48'0 0.0 280 / 111009.7 3.5 1.5
2016-Nov-30 15:00N 52°30' W 128°48'0 0.0 310 / 171007.9 3.7 1.5
2016-Nov-30 14:00N 52°30' W 128°48'0 0.0 320 / 321004.7 2.9 0.5
2016-Nov-30 13:00N 52°30' W 128°48'0 0.0 310 / 241003.6 2.0 0.6
2016-Nov-30 12:00N 52°30' W 128°48'0 0.0 120 / 121001.7 1.9-0.8
2016-Nov-30 11:00N 52°30' W 128°48'0 0.0 140 / 211000.6 2.6-1.2
2016-Nov-30 10:00N 52°30' W 128°48'0 0.0 150 / 211001.1 2.4-1.1
2016-Nov-30 09:00N 52°30' W 128°48'0 0.0 150 / 101001.1 -0.0-2.8
2016-Nov-30 08:00N 52°30' W 128°48'0 0.0 150 / 141000.2 -3.1-7.6
2016-Nov-30 07:00N 52°30' W 128°48'0 0.0 130 / 11999.9 -0.6-4.8
2016-Nov-30 06:00N 52°30' W 128°48'0 0.0 120 / 131000.4 -1.7-4.9
2016-Nov-30 05:00N 52°30' W 128°48'0 0.0 130 / 71000.9 -5.3-8.0
2016-Nov-30 04:00N 52°30' W 128°48'0 0.0 170 / 31000.9 -7.8-10.1
2016-Nov-30 03:00N 52°30' W 128°48'0 0.0 140 / 61000.8 -12.0-16.0
2016-Nov-30 02:00N 52°30' W 128°48'0 0.0 120 / 51000.7 -13.5-17.4
2016-Nov-30 01:00N 52°30' W 128°48'0 0.0 120 / 101001.8 -15.6-20.4
2016-Nov-30 00:00N 52°30' W 128°48'0 0.0 140 / 141002.6 -23.3-28.6
2016-Nov-29 23:00N 52°30' W 128°48'0 0.0 130 / 171003.7
2016-Nov-29 22:00N 52°30' W 128°48'0 0.0 130 / 191004.9
2016-Nov-29 21:00N 52°30' W 128°48'0 0.0 130 / 191006.8
2016-Nov-29 20:00N 52°30' W 128°48'0 0.0 130 / 221008.2
2016-Nov-29 19:00N 52°30' W 128°48'0 0.0 130 / 221009.1
2016-Nov-29 18:00N 52°30' W 128°48'0 0.0 130 / 221010.0
2016-Nov-29 17:00N 52°30' W 128°48'0 0.0 130 / 221010.7
2016-Nov-29 16:00N 52°30' W 128°48'0 0.0 130 / 211011.6
2016-Nov-29 15:00N 52°30' W 128°48'0 0.0 130 / 211012.1
2016-Nov-29 14:00N 52°30' W 128°48'0 0.0 130 / 201012.9
2016-Nov-29 13:00N 52°30' W 128°48'0 0.0 130 / 211013.4
2016-Nov-29 12:00N 52°30' W 128°48'0 0.0 130 / 201013.9
2016-Nov-29 11:00N 52°30' W 128°48'0 0.0 140 / 171014.6
2016-Nov-29 10:00N 52°30' W 128°48'0 0.0 130 / 131015.3
2016-Nov-29 09:00N 52°30' W 128°48'0 0.0 130 / 141015.3
2016-Nov-29 08:00N 52°30' W 128°48'0 0.0 130 / 161015.5
2016-Nov-29 07:00N 52°30' W 128°48'0 0.0 130 / 161015.5
2016-Nov-29 06:00N 52°30' W 128°48'0 0.0 140 / 121015.9
2016-Nov-29 05:00N 52°30' W 128°48'0 0.0 130 / 91016.1
2016-Nov-29 04:00N 52°30' W 128°48'0 0.0 140 / 61016.3
2016-Nov-29 03:00N 52°30' W 128°48'0 0.0 130 / 51016.5
2016-Nov-29 02:00N 52°30' W 128°48'0 0.0 190 / 21015.9
2016-Nov-29 01:00N 52°30' W 128°48'0 0.0 250 / 21015.4
2016-Nov-29 00:00N 52°30' W 128°48'0 0.0 310 / 91014.8
2016-Nov-28 23:00N 52°30' W 128°48'0 0.0 280 / 51014.3
2016-Nov-28 22:00N 52°30' W 128°48'0 0.0 280 / 61013.5
2016-Nov-28 21:00N 52°30' W 128°48'0 0.0 290 / 81012.7
2016-Nov-28 20:00N 52°30' W 128°48'0 0.0 300 / 91012.0
2016-Nov-28 19:00N 52°30' W 128°48'0 0.0 270 / 81011.0
2016-Nov-28 18:00N 52°30' W 128°48'0 0.0 290 / 111009.7
2016-Nov-28 17:00N 52°30' W 128°48'0 0.0 300 / 111008.9
2016-Nov-28 16:00N 52°30' W 128°48'0 0.0 340 / 51007.8
2016-Nov-28 15:00N 52°30' W 128°48'0 0.0 230 / 21006.4
2016-Nov-28 14:00N 52°30' W 128°48'0 0.0 130 / 61005.1
2016-Nov-28 13:00N 52°30' W 128°48'0 0.0 110 / 51003.8
2016-Nov-28 12:00N 52°30' W 128°48'0 0.0 110 / 71002.5
2016-Nov-28 11:00N 52°30' W 128°48'0 0.0 090 / 91001.1
2016-Nov-28 10:00N 52°30' W 128°48'0 0.0 090 / 81000.0
2016-Nov-28 09:00N 52°30' W 128°48'0 0.0 130 / 16999.0
2016-Nov-28 08:00N 52°30' W 128°48'0 0.0 130 / 16998.5
2016-Nov-28 07:00N 52°30' W 128°48'0 0.0 130 / 16997.8
2016-Nov-28 06:00N 52°30' W 128°48'0 0.0 140 / 16997.4
2016-Nov-28 05:00N 52°30' W 128°48'0 0.0 110 / 12997.1
2016-Nov-28 04:00N 52°30' W 128°48'0 0.0 120 / 9997.3
2016-Nov-28 03:00N 52°30' W 128°48'0 0.0 110 / 11997.0 11.7
2016-Nov-28 02:00N 52°30' W 128°48'0 0.0 110 / 8997.1 11.6
2016-Nov-28 01:00N 52°30' W 128°48'6 6.0 120 / 10997.1 11.5
2016-Nov-28 00:00N 52°36' W 128°48'1312.5 020 / 12995.9 11.5
2016-Nov-27 23:00N 52°24' W 128°54'7 7.0 330 / 12994.9 11.3
2016-Nov-27 22:00N 52°18' W 128°48'1111.0 320 / 16993.7 11.2
2016-Nov-27 21:00N 52°18' W 128°30'1312.5 170 / 31993.8 11.2
2016-Nov-27 20:00N 52°12' W 128°12'4 3.7 140 / 16994.0 11.2
2016-Nov-27 19:00N 52°12' W 128°06'9 9.5 150 / 18994.9 11.3
2016-Nov-27 18:00N 52°06' W 127°54'1212.0 140 / 9996.6 11.4
2016-Nov-27 17:00N 51°54' W 127°54'1212.0 150 / 21998.3 11.5
2016-Nov-27 16:00N 51°42' W 127°54'7 7.4 160 / 15999.9 11.7
2016-Nov-27 15:00N 51°42' W 128°06'0 0.0 150 / 7999.7
2016-Nov-27 14:00N 51°42' W 128°06'0 0.0 110 / 71000.9
2016-Nov-27 13:00N 51°42' W 128°06'0 0.0 110 / 51002.3
2016-Nov-27 12:00N 51°42' W 128°06'0 0.0 140 / 41002.7
2016-Nov-27 11:00N 51°42' W 128°06'0 0.0 150 / 21002.4
2016-Nov-27 10:00N 51°42' W 128°06'0 0.0 140 / 41002.6
2016-Nov-27 09:00N 51°42' W 128°06'0 0.0 120 / 31002.9
2016-Nov-27 08:00N 51°42' W 128°06'0 0.0 180 / 31003.0
2016-Nov-27 07:00N 51°42' W 128°06'0 0.0 150 / 21002.7
2016-Nov-27 06:00N 51°42' W 128°06'0 0.0 160 / 31002.0
2016-Nov-27 05:00N 51°42' W 128°06'0 0.0 100 / 21001.7
2016-Nov-27 04:00N 51°42' W 128°06'0 0.0 170 / 11001.5
2016-Nov-27 03:00N 51°42' W 128°06'0 0.0 170 / 11000.9
2016-Nov-27 02:00N 51°42' W 128°06'0 0.0 170 / 51000.6
2016-Nov-27 01:00N 51°42' W 128°06'0 0.0 130 / 11000.5
2016-Nov-27 00:00N 51°42' W 128°06'0 0.0 020 / 5999.7
2016-Nov-26 23:00N 51°42' W 128°06'0 0.0 020 / 5999.3
2016-Nov-26 22:00N 51°42' W 128°06'0 0.0 360 / 9999.0
2016-Nov-26 21:00N 51°42' W 128°06'0 0.0 020 / 6998.8
2016-Nov-26 20:00N 51°42' W 128°06'0 0.0 350 / 7998.9
2016-Nov-26 19:00N 51°42' W 128°06'0 0.0 040 / 5999.2
2016-Nov-26 18:00N 51°42' W 128°06'0 0.0 020 / 5999.1
2016-Nov-26 17:00N 51°42' W 128°06'0 0.0 020 / 4999.2
2016-Nov-26 16:00N 51°42' W 128°06'0 0.0 030 / 5999.4
2016-Nov-26 15:00N 51°42' W 128°06'0 0.0 1000.2
2016-Nov-26 14:00N 51°42' W 128°06'0 0.0 060 / 41000.9
2016-Nov-26 13:00N 51°42' W 128°06'0 0.0 100 / 41001.8
2016-Nov-26 12:00N 51°42' W 128°06'0 0.0 110 / 61002.5
2016-Nov-26 11:00N 51°42' W 128°06'0 0.0 170 / 51003.6
2016-Nov-26 10:00N 51°42' W 128°06'0 0.0 100 / 101003.9
2016-Nov-26 09:00N 51°42' W 128°06'0 0.0 120 / 61004.9
2016-Nov-26 08:00N 51°42' W 128°06'0 0.0 110 / 101005.9
2016-Nov-26 07:00N 51°42' W 128°06'0 0.0 120 / 61006.8
2016-Nov-26 06:00N 51°42' W 128°06'0 0.0 100 / 71007.5
2016-Nov-26 05:00N 51°42' W 128°06'0 0.0 110 / 31008.5
2016-Nov-26 04:00N 51°42' W 128°06'0 0.0 110 / 41009.3
2016-Nov-26 03:00N 51°42' W 128°06'0 0.0 080 / 31009.9
2016-Nov-26 02:00N 51°42' W 128°06'0 0.0 080 / 51010.3
2016-Nov-26 01:00N 51°42' W 128°06'0 0.0 080 / 91010.3
2016-Nov-26 00:00N 51°42' W 128°06'0 0.0 090 / 31010.4
2016-Nov-25 23:00N 51°42' W 128°06'0 0.0 120 / 41010.6
2016-Nov-25 22:00N 51°42' W 128°06'0 0.0 130 / 31010.6
2016-Nov-25 21:00N 51°42' W 128°06'0 0.0 080 / 61010.7
2016-Nov-25 20:00N 51°42' W 128°06'0 0.0 120 / 21011.0
2016-Nov-25 19:00N 51°42' W 128°06'0 0.0 110 / 41011.0 -19.3-24.4
2016-Nov-25 18:00N 51°42' W 128°06'0 0.0 150 / 11010.5 -18.6-20.8
2016-Nov-25 17:00N 51°42' W 128°06'0 0.0 090 / 41010.3 -17.2-20.6
2016-Nov-25 16:00N 51°42' W 128°06'0 0.0 060 / 61009.7 -17.3-19.2
2016-Nov-25 15:00N 51°42' W 128°06'0 0.0 070 / 31008.9 -21.2-25.0
2016-Nov-25 14:00N 51°42' W 128°06'0 0.0 050 / 41008.3 -20.8-23.0
2016-Nov-25 13:00N 51°42' W 128°06'0 0.0 100 / 71007.7 -16.9-19.3
2016-Nov-25 12:00N 51°42' W 128°06'0 0.0 070 / 51007.0 -14.4-15.9
2016-Nov-25 11:00N 51°42' W 128°06'0 0.0 060 / 61006.4 -14.9-16.8
2016-Nov-25 10:00N 51°42' W 128°06'0 0.0 050 / 41005.1 -14.2-15.5
2016-Nov-25 09:00N 51°42' W 128°06'0 0.0 070 / 41004.6 -14.0-15.7
2016-Nov-25 08:00N 51°42' W 128°06'0 0.0 100 / 21003.9 -14.7-16.7
2016-Nov-25 07:00N 51°42' W 128°06'0 0.0 090 / 41003.3 -13.9-16.3
2016-Nov-25 06:00N 51°42' W 128°06'0 0.0 110 / 41003.0 -14.4-17.5
2016-Nov-25 05:00N 51°42' W 128°06'0 0.0 100 / 41002.6 -12.7-15.6
2016-Nov-25 04:00N 51°42' W 128°06'0 0.0 110 / 61002.2 -13.3-17.3
2016-Nov-25 03:00N 51°42' W 128°06'0 0.0 130 / 51002.3 -12.7-17.0
2016-Nov-25 02:00N 51°42' W 128°06'0 0.0 150 / 61002.3 -12.2-16.6
2016-Nov-25 01:00N 51°42' W 128°06'0 0.0 150 / 81002.1 -11.4-15.3
2016-Nov-25 00:00N 51°42' W 128°06'0 0.0 150 / 71001.6 -10.8-15.1
2016-Nov-24 23:00N 51°42' W 128°06'0 0.0 140 / 61001.4 -9.3-13.2
2016-Nov-24 22:00N 51°42' W 128°06'0 0.0 180 / 41001.4 -7.5-9.8
2016-Nov-24 21:00N 51°42' W 128°06'0 0.0 140 / 61001.0 -1.2-6.5
2016-Nov-24 20:00N 51°42' W 128°06'0 0.0 100 / 71001.4 0.1-4.9
2016-Nov-24 19:00N 51°42' W 128°06'0 0.0 130 / 71001.6 -0.4-5.1
2016-Nov-24 18:00N 51°42' W 128°06'0 0.0 100 / 81001.7 -1.4-3.4
2016-Nov-24 17:00N 51°42' W 128°06'0 0.0 100 / 91001.4 -1.5-3.9
2016-Nov-24 16:00N 51°42' W 128°06'0 0.0 090 / 151000.8 -1.4-4.0
2016-Nov-24 15:00N 51°42' W 128°06'0 0.0 090 / 101000.8 -1.2-4.0
2016-Nov-24 14:00N 51°42' W 128°06'0 0.0 090 / 81001.2 -1.1-4.1
2016-Nov-24 13:00N 51°42' W 128°06'0 0.0 100 / 131001.0 -0.4-3.8
2016-Nov-24 12:00N 51°42' W 128°06'0 0.0 140 / 51001.5 -0.1-4.6
2016-Nov-24 11:00N 51°42' W 128°06'0 0.0 160 / 111001.4 -0.2-6.5
2016-Nov-24 10:00N 51°42' W 128°06'0 0.0 150 / 131000.5 0.3-4.9
2016-Nov-24 09:00N 51°42' W 128°06'0 0.0 130 / 41001.0 -1.5-4.712.4
2016-Nov-24 08:00N 51°42' W 128°06'0 0.0 120 / 121001.5 -2.9-4.812.5
2016-Nov-24 07:00N 51°42' W 128°06'10 9.6 190 / 161000.2 -1.4-3.412.5
2016-Nov-24 06:00N 51°36' W 127°54'1212.0 160 / 30999.9 0.5-2.212.6
2016-Nov-24 05:00N 51°24' W 127°54'1212.0 150 / 38998.2 0.4-1.612.6
2016-Nov-24 04:00N 51°12' W 127°54'716.3 130 / 39997.8 1.6-1.412.6
2016-Nov-24 03:33N 51°05' W 127°50'1120.2
2016-Nov-24 03:00N 50°54' W 127°48'511.0 120 / 42998.4 2.1-2.112.6
2016-Nov-24 02:33N 50°55' W 127°41'712.2
2016-Nov-24 02:00N 50°54' W 127°30'613.7 120 / 351001.5 1.3-2.912.6
2016-Nov-24 01:33N 50°49' W 127°25'712.9
2016-Nov-24 01:00N 50°42' W 127°30'0 0.0 120 / 181003.0 0.7-2.712.7
2016-Nov-24 00:00N 50°42' W 127°30'0 0.0 130 / 91004.6 -0.2-2.9
2016-Nov-23 23:00N 50°42' W 127°30'0 0.0 120 / 81005.6 -0.3-3.3
2016-Nov-23 22:00N 50°42' W 127°30'1 1.8 130 / 71006.6 -0.1-2.6
2016-Nov-23 21:11N 50°43' W 127°29'1 7.2
2016-Nov-23 21:00N 50°42' W 127°30'0 0.0 130 / 71007.2 -0.1-2.4
2016-Nov-23 20:00N 50°42' W 127°30'0 0.0 150 / 41007.5 -0.3-2.513.4
2016-Nov-23 19:00N 50°42' W 127°30'   190 / 31007.8 -0.9-2.113.4

Dump ship's entire track history